Portada
METAR-TAF:

METAR-TAF

Aeroports :

Preston, Anglaterra

latitud: 53-44-42N, longitud: 2-53-02W, altitud: 17 m

Observació

L'informe es va fer fa 7 hores i 59 minuts, a les 16:50 UTC
Vent 15 kt del Sud-Oest
Temperatura 10°C
Humitat 82%
Pressió 1011 hPa
Visibilitat 10 km o més
Cel ennuvolat a una alçada de 2100 ft

METAR: EGNO 211650Z 23015KT 9999 BKN021 10/07 Q1011

Hora: 00:49 (00:49 UTC)

Pronòstic

L'informe es va fer fa 10 hores i 46 minuts, a les 14:03 UTC
Pronòstic vàlid del 21 a les 15 UTC al 21 a les 19 UTC
Vent 15 kt del Sud-Oest amb ràfegues de 25 kt
Visibilitat 10 km o més
Escasses núvols a una alçada de 1400 ft
Cel ennuvolat a una alçada de 3000 ft
Temporalment
l' 21 a les 15 UTC al 21 a les 19 UTC
Vent 25 kt del Oest/Sud-Oest amb ràfegues de 37 kt
Visibilitat: 7000 m
pluja

TAF: EGNO 211403Z 2115/2119 22015G25KT 9999 FEW014 BKN030 TEMPO 2115/2119 24025G37KT 7000 RA

Observacions i pronòstics meteorològics de més de 4000 aeroports (METAR i TAF).

Les estacions disponibles són els punts grocs i vermells al mapa.

Posi el ratolí al punt desitjat per veure el nom de l'estació.

Feu clic per veure les observacions i els pronòstics meteorològics.

Per canviar el mapa: feu clic els botons verds amb una creu de color negre per apropar; al botó verd amb un guió per allunyar la imatge; o en les fletxes verdes per a mapes adjacents.


METAR-TAF: